Time;durP1;ratioP1;P1;durP2;ratioP2;P2;SDS_P1;SDS_P2;PMS_P1;PMS_P2;Temp;Humidity;BMP_temperature;BMP_pressure;BME280_temperature;BME280_humidity;BME280_pressure;Samples;Min_cycle;Max_cycle;Signal;HPM_P1;HPM_P2
2022/10/17 00:00:58;;;;;;;0.30;0.30;;;20.30;70.30;;;;;;4959551;28;20406;-23
2022/10/17 00:03:23;;;;;;;0.50;0.50;;;20.30;70.20;;;;;;4960453;28;20104;-15
2022/10/17 00:05:49;;;;;;;0.40;0.40;;;20.30;70.10;;;;;;4961800;28;20588;-10
2022/10/17 00:08:15;;;;;;;0.60;0.60;;;20.30;70.10;;;;;;4959520;28;20035;-12
2022/10/17 00:10:41;;;;;;;0.57;0.57;;;20.30;70.20;;;;;;4959671;28;20057;-11
2022/10/17 00:13:06;;;;;;;0.65;0.60;;;20.30;70.30;;;;;;4966240;28;20030;-25
2022/10/17 00:15:32;;;;;;;0.40;0.40;;;20.30;70.30;;;;;;4963018;28;20019;-16
2022/10/17 00:17:58;;;;;;;0.50;0.50;;;20.20;70.40;;;;;;4963108;28;20406;-33
2022/10/17 00:20:23;;;;;;;0.55;0.50;;;20.20;70.40;;;;;;4962631;28;20085;-12
2022/10/17 00:22:49;;;;;;;0.40;0.40;;;20.20;70.60;;;;;;4962632;28;20119;-21
2022/10/17 00:25:15;;;;;;;0.40;0.40;;;20.20;70.60;;;;;;4962422;28;20466;-11
2022/10/17 00:27:40;;;;;;;0.50;0.50;;;20.20;70.60;;;;;;4963580;28;20513;-30
2022/10/17 00:30:08;;;;;;;0.40;0.40;;;20.20;70.60;;;;;;4960868;28;20030;-12
2022/10/17 00:32:34;;;;;;;0.40;0.40;;;20.20;70.60;;;;;;4964002;28;20027;-16
2022/10/17 00:34:59;;;;;;;0.50;0.50;;;20.20;70.70;;;;;;4962997;28;20023;-11
2022/10/17 00:37:25;;;;;;;1.27;0.50;;;20.20;70.60;;;;;;4963463;28;20023;-16
2022/10/17 00:39:51;;;;;;;0.47;0.47;;;20.20;70.80;;;;;;4962214;28;20170;-11
2022/10/17 00:42:16;;;;;;;2.40;0.88;;;20.20;70.60;;;;;;4961530;28;20486;-11
2022/10/17 00:44:45;;;;;;;0.40;0.40;;;20.20;70.80;;;;;;4962099;28;20023;-11
2022/10/17 00:47:13;;;;;;;0.60;0.60;;;20.20;70.80;;;;;;4958950;28;20422;-11
2022/10/17 00:49:39;;;;;;;1.02;0.50;;;20.20;70.50;;;;;;4958084;28;20089;-11
2022/10/17 00:52:07;;;;;;;0.45;0.45;;;20.20;70.60;;;;;;4995417;28;20110;-15
2022/10/17 00:54:37;;;;;;;0.50;0.50;;;20.10;70.90;;;;;;4961247;28;20617;-12
2022/10/17 00:57:03;;;;;;;0.40;0.40;;;20.20;70.70;;;;;;4995635;28;20043;-11
2022/10/17 00:59:28;;;;;;;0.40;0.40;;;20.20;70.80;;;;;;4962438;28;20056;-11
2022/10/17 01:02:01;;;;;;;0.47;0.47;;;20.20;70.90;;;;;;4976990;28;20051;-12
2022/10/17 01:04:27;;;;;;;0.50;0.50;;;20.10;70.70;;;;;;4979021;28;20031;-11
2022/10/17 01:06:52;;;;;;;0.60;0.60;;;20.20;70.70;;;;;;4959185;28;20430;-11
2022/10/17 01:09:18;;;;;;;0.50;0.50;;;20.10;70.60;;;;;;4961811;28;20034;-11
2022/10/17 01:12:01;;;;;;;0.50;0.50;;;20.10;70.80;;;;;;4962256;28;20030;-11
2022/10/17 01:14:33;;;;;;;0.57;0.57;;;20.10;70.90;;;;;;4957197;28;20585;-11
2022/10/17 01:17:10;;;;;;;0.50;0.50;;;20.20;70.60;;;;;;4963454;28;20772;-11
2022/10/17 01:20:06;;;;;;;0.40;0.40;;;20.20;70.80;;;;;;4972376;28;20562;-11
2022/10/17 01:22:36;;;;;;;0.52;0.52;;;20.10;70.90;;;;;;4960529;28;20018;-11
2022/10/17 01:25:31;;;;;;;0.60;0.60;;;20.20;70.60;;;;;;4960061;28;20512;-13
2022/10/17 01:28:06;;;;;;;;;;;20.20;70.50;;;;;;4962787;28;20034;-12
2022/10/17 01:30:45;;;;;;;0.50;0.50;;;20.20;70.70;;;;;;4964395;28;19910;-15
2022/10/17 01:33:20;;;;;;;0.45;0.45;;;20.20;70.60;;;;;;4955029;28;20058;-11
2022/10/17 01:35:54;;;;;;;0.77;0.50;;;20.10;70.70;;;;;;4955197;28;20027;-11
2022/10/17 01:38:25;;;;;;;0.38;0.38;;;20.10;70.60;;;;;;4954499;28;20034;-11
2022/10/17 01:40:55;;;;;;;0.50;0.50;;;20.20;70.70;;;;;;4983506;28;20035;-11
2022/10/17 01:43:28;;;;;;;0.57;0.40;;;20.20;70.80;;;;;;4954898;28;20035;-12
2022/10/17 01:46:19;;;;;;;0.28;0.28;;;20.20;71.00;;;;;;4974222;28;20096;-11
2022/10/17 01:48:45;;;;;;;0.47;0.45;;;20.20;70.70;;;;;;4968993;28;20044;-11
2022/10/17 01:51:32;;;;;;;0.50;0.50;;;20.10;70.70;;;;;;4951012;28;20098;-14
2022/10/17 01:54:04;;;;;;;0.60;0.60;;;20.10;71.10;;;;;;4938246;28;20045;-15
2022/10/17 01:56:30;;;;;;;0.38;0.38;;;20.10;70.70;;;;;;4968254;28;20050;-11
2022/10/17 01:59:01;;;;;;;0.60;0.60;;;20.20;70.90;;;;;;4940081;28;20590;-13
2022/10/17 02:01:28;;;;;;;0.60;0.60;;;20.10;71.10;;;;;;4972610;28;20023;-11
2022/10/17 02:03:53;;;;;;;0.60;0.60;;;20.10;70.70;;;;;;4953645;28;20022;-11
2022/10/17 02:06:19;;;;;;;0.50;0.50;;;20.20;70.80;;;;;;4971426;28;20027;-13
2022/10/17 02:08:46;;;;;;;0.73;0.50;;;20.20;70.70;;;;;;4984117;28;20030;-11
2022/10/17 02:11:16;;;;;;;0.47;0.47;;;20.20;70.70;;;;;;4953595;28;20434;-11
2022/10/17 02:13:47;;;;;;;0.57;0.57;;;20.10;71.10;;;;;;4956213;28;20034;-11
2022/10/17 02:16:28;;;;;;;0.60;0.60;;;20.20;71.10;;;;;;4958186;28;20031;-12
2022/10/17 02:19:17;;;;;;;0.73;0.45;;;20.10;70.90;;;;;;4971888;28;20565;-11
2022/10/17 02:21:56;;;;;;;0.50;0.50;;;20.20;70.70;;;;;;4938895;29;20051;-18
2022/10/17 02:24:29;;;;;;;0.55;0.55;;;20.10;70.70;;;;;;4924250;29;20588;-17
2022/10/17 02:27:09;;;;;;;0.60;0.60;;;20.20;70.70;;;;;;4920318;28;20046;-14
2022/10/17 02:29:38;;;;;;;0.40;0.40;;;20.10;70.70;;;;;;4924417;28;20118;-11
2022/10/17 02:32:07;;;;;;;0.40;0.40;;;20.20;70.80;;;;;;4925105;29;20570;-11
2022/10/17 02:34:37;;;;;;;2.03;0.55;;;20.10;70.80;;;;;;4921755;29;20070;-12
2022/10/17 02:37:04;;;;;;;0.60;0.60;;;20.10;70.90;;;;;;4924522;29;20056;-12
2022/10/17 02:39:30;;;;;;;0.40;0.40;;;20.10;70.70;;;;;;4922326;29;20402;-11
2022/10/17 02:41:56;;;;;;;0.50;0.50;;;20.20;70.70;;;;;;4925924;29;20567;-11
2022/10/17 02:44:22;;;;;;;0.50;0.50;;;20.10;70.90;;;;;;4908286;29;20035;-15
2022/10/17 02:46:52;;;;;;;0.60;0.60;;;20.20;70.80;;;;;;4924996;29;20089;-11
2022/10/17 02:49:22;;;;;;;0.50;0.50;;;20.20;70.70;;;;;;4922403;29;20059;-11
2022/10/17 02:52:10;;;;;;;0.40;0.40;;;20.20;70.70;;;;;;4922135;29;20101;-11
2022/10/17 02:54:38;;;;;;;0.50;0.50;;;20.20;70.70;;;;;;4926462;29;20296;-11
2022/10/17 02:57:07;;;;;;;0.40;0.40;;;20.20;70.30;;;;;;4921968;29;20105;-11
2022/10/17 02:59:33;;;;;;;0.50;0.50;;;20.20;70.50;;;;;;4924957;28;20063;-11
2022/10/17 03:02:02;;;;;;;0.40;0.40;;;20.20;70.60;;;;;;4957378;28;20065;-11
2022/10/17 03:04:27;;;;;;;0.40;0.40;;;20.20;70.40;;;;;;4976898;28;20082;-11
2022/10/17 03:06:53;;;;;;;0.70;0.70;;;20.30;70.90;;;;;;4958439;28;20030;-11
2022/10/17 03:09:18;;;;;;;0.45;0.40;;;20.20;70.20;;;;;;4959417;28;20061;-11
2022/10/17 03:11:44;;;;;;;0.40;0.40;;;20.20;70.30;;;;;;4962271;28;20017;-11
2022/10/17 03:14:10;;;;;;;0.40;0.40;;;20.20;70.20;;;;;;4956761;28;20481;-12
2022/10/17 03:16:35;;;;;;;0.38;0.38;;;20.20;70.30;;;;;;4959355;28;20026;-13
2022/10/17 03:19:01;;;;;;;0.60;0.52;;;20.30;70.20;;;;;;4955537;28;20458;-12
2022/10/17 03:21:26;;;;;;;0.45;0.45;;;20.20;70.20;;;;;;4961483;28;20028;-11
2022/10/17 03:23:52;;;;;;;0.70;0.70;;;20.30;70.20;;;;;;4957781;28;20069;-16
2022/10/17 03:26:17;;;;;;;0.45;0.45;;;20.20;70.20;;;;;;4961438;28;20081;-11
2022/10/17 03:28:43;;;;;;;0.47;0.47;;;20.20;70.30;;;;;;4956016;28;20502;-11
2022/10/17 03:31:09;;;;;;;0.60;0.60;;;20.30;70.10;;;;;;4960855;28;20026;-13
2022/10/17 03:33:36;;;;;;;0.40;0.40;;;20.30;70.20;;;;;;4961708;28;20028;-11
2022/10/17 03:36:06;;;;;;;0.30;0.30;;;20.30;70.10;;;;;;4955153;28;20500;-11
2022/10/17 03:38:32;;;;;;;0.60;0.60;;;20.20;70.30;;;;;;4961628;28;20106;-11
2022/10/17 03:40:58;;;;;;;0.63;0.60;;;20.20;70.30;;;;;;4962281;28;20031;-11
2022/10/17 03:43:23;;;;;;;0.60;0.60;;;20.20;70.40;;;;;;4958813;28;20043;-11
2022/10/17 03:45:49;;;;;;;0.40;0.40;;;20.20;70.50;;;;;;4957900;28;20043;-11
2022/10/17 03:48:15;;;;;;;0.70;0.50;;;20.20;70.50;;;;;;4959212;28;20027;-11
2022/10/17 03:50:40;;;;;;;0.55;0.55;;;20.20;70.30;;;;;;4960772;28;20015;-16
2022/10/17 03:53:06;;;;;;;0.50;0.50;;;20.30;70.20;;;;;;4959379;28;20027;-12
2022/10/17 03:55:31;;;;;;;0.50;0.50;;;20.20;70.30;;;;;;4958293;28;20031;-11
2022/10/17 03:57:57;;;;;;;0.55;0.50;;;20.20;70.40;;;;;;4953138;28;20106;-22
2022/10/17 04:00:23;;;;;;;0.38;0.38;;;20.20;70.30;;;;;;4961913;28;20031;-11
2022/10/17 04:02:48;;;;;;;0.60;0.50;;;20.30;70.10;;;;;;4961039;28;20030;-11
2022/10/17 04:05:14;;;;;;;0.52;0.47;;;20.30;70.20;;;;;;4958600;28;20085;-11
2022/10/17 04:07:39;;;;;;;0.40;0.40;;;20.30;70.10;;;;;;4959652;28;20023;-12
2022/10/17 04:10:05;;;;;;;0.40;0.40;;;20.30;71.10;;;;;;4960963;28;20482;-11
2022/10/17 04:12:31;;;;;;;0.80;0.80;;;20.30;70.10;;;;;;4959932;28;20502;-11
2022/10/17 04:14:56;;;;;;;0.50;0.50;;;20.30;70.10;;;;;;4957901;28;20050;-15
2022/10/17 04:17:22;;;;;;;0.50;0.50;;;20.30;70.00;;;;;;4959965;28;20447;-11
2022/10/17 04:19:50;;;;;;;0.50;0.50;;;20.30;70.00;;;;;;4957432;28;20031;-11
2022/10/17 04:22:16;;;;;;;0.60;0.45;;;20.30;70.10;;;;;;4960182;28;20031;-11
2022/10/17 04:24:41;;;;;;;0.50;0.50;;;20.30;69.80;;;;;;4958772;28;20031;-11
2022/10/17 04:27:07;;;;;;;0.57;0.57;;;20.30;70.00;;;;;;4959239;28;20119;-11
2022/10/17 04:29:33;;;;;;;0.50;0.50;;;20.30;70.10;;;;;;4957873;28;20086;-12
2022/10/17 04:31:58;;;;;;;0.60;0.60;;;20.30;69.90;;;;;;4959783;28;20142;-12
2022/10/17 04:34:24;;;;;;;0.60;0.60;;;20.30;69.80;;;;;;4959176;28;20106;-11
2022/10/17 04:36:50;;;;;;;0.60;0.60;;;20.30;70.00;;;;;;4958348;28;20035;-11
2022/10/17 04:39:16;;;;;;;0.73;0.50;;;20.30;70.00;;;;;;4959929;28;20227;-11
2022/10/17 04:41:41;;;;;;;0.50;0.50;;;20.30;69.90;;;;;;4960869;28;20039;-11
2022/10/17 04:44:08;;;;;;;0.43;0.43;;;20.30;69.80;;;;;;4960351;28;20031;-11
2022/10/17 04:46:34;;;;;;;0.40;0.40;;;20.40;69.70;;;;;;4960948;28;20023;-11
2022/10/17 04:48:59;;;;;;;0.40;0.40;;;20.30;70.00;;;;;;4958418;28;20026;-11
2022/10/17 04:51:25;;;;;;;0.40;0.40;;;20.30;69.80;;;;;;4948782;28;20025;-12
2022/10/17 04:53:51;;;;;;;0.45;0.45;;;20.30;69.90;;;;;;4952066;28;20032;-11
2022/10/17 04:56:18;;;;;;;0.40;0.40;;;20.40;69.90;;;;;;4954505;28;20095;-12
2022/10/17 04:58:43;;;;;;;0.40;0.40;;;20.40;70.00;;;;;;4955817;28;20042;-12
2022/10/17 05:01:11;;;;;;;0.57;0.57;;;20.30;70.00;;;;;;4957738;28;20466;-12
2022/10/17 05:03:36;;;;;;;0.30;0.30;;;20.30;70.00;;;;;;4960479;28;20025;-20
2022/10/17 05:06:07;;;;;;;0.50;0.50;;;20.30;70.00;;;;;;4955266;28;20050;-12
2022/10/17 05:08:32;;;;;;;0.45;0.45;;;20.30;69.90;;;;;;4965866;28;20029;-12
2022/10/17 05:10:58;;;;;;;0.40;0.40;;;20.30;70.10;;;;;;4950928;28;20015;-13
2022/10/17 05:13:24;;;;;;;0.50;0.50;;;20.40;70.00;;;;;;4950788;28;20031;-12
2022/10/17 05:15:49;;;;;;;0.32;0.32;;;20.50;69.60;;;;;;4954266;28;20031;-15
2022/10/17 05:18:15;;;;;;;2.58;0.40;;;20.50;70.10;;;;;;4954947;28;20517;-11
2022/10/17 05:20:40;;;;;;;1.60;0.70;;;20.40;70.90;;;;;;4606452;28;10000301;-11
2022/10/17 05:23:06;;;;;;;0.32;0.32;;;20.40;71.20;;;;;;4951808;28;20025;-11
2022/10/17 05:25:31;;;;;;;0.60;0.50;;;20.50;71.40;;;;;;4953375;28;20031;-11
2022/10/17 05:27:57;;;;;;;0.30;0.30;;;20.30;71.70;;;;;;4952010;28;20039;-11
2022/10/17 05:30:23;;;;;;;0.50;0.50;;;20.40;71.60;;;;;;4950677;28;20031;-16
2022/10/17 05:32:53;;;;;;;0.40;0.40;;;20.40;71.50;;;;;;4951107;28;20035;-12
2022/10/17 05:35:19;;;;;;;0.50;0.50;;;20.50;71.00;;;;;;4951814;28;20028;-12
2022/10/17 05:37:44;;;;;;;0.95;0.50;;;20.40;71.30;;;;;;4951119;28;20574;-12
2022/10/17 05:40:10;;;;;;;3.17;0.57;;;20.50;71.00;;;;;;4958336;28;20473;-12
2022/10/17 05:42:36;;;;;;;2.13;0.55;;;20.60;71.10;;;;;;4971256;28;20016;-13
2022/10/17 05:45:01;;;;;;;0.70;0.70;;;20.40;71.70;;;;;;4956508;28;20777;-12
2022/10/17 05:47:27;;;;;;;2.08;0.50;;;20.40;71.70;;;;;;4955657;28;20031;-12
2022/10/17 05:49:52;;;;;;;0.98;0.65;;;20.50;71.50;;;;;;4954520;28;20498;-17
2022/10/17 05:52:18;;;;;;;0.95;0.63;;;20.40;71.80;;;;;;4952491;28;20027;-12
2022/10/17 05:54:43;;;;;;;1.00;0.55;;;20.50;71.30;;;;;;4960078;28;20122;-12
2022/10/17 05:57:09;;;;;;;1.15;0.45;;;20.60;70.90;;;;;;4965248;28;20043;-12
2022/10/17 05:59:35;;;;;;;0.47;0.40;;;20.60;71.30;;;;;;4961936;28;20027;-12
2022/10/17 06:02:00;;;;;;;1.17;0.70;;;20.50;70.90;;;;;;4962341;28;20058;-12
2022/10/17 06:04:26;;;;;;;0.50;0.43;;;20.50;71.10;;;;;;4960122;28;20027;-12
2022/10/17 06:06:52;;;;;;;0.50;0.50;;;20.50;71.00;;;;;;4958560;28;20038;-12
2022/10/17 06:09:18;;;;;;;0.65;0.40;;;20.50;71.30;;;;;;4604055;28;9999969;-12
2022/10/17 06:11:43;;;;;;;0.90;0.65;;;20.60;70.80;;;;;;4951002;28;20118;-13
2022/10/17 06:14:09;;;;;;;0.50;0.45;;;20.50;70.70;;;;;;4957829;28;20106;-17
2022/10/17 06:16:34;;;;;;;0.40;0.40;;;20.40;70.90;;;;;;4952588;28;20035;-11
2022/10/17 06:19:00;;;;;;;2.67;0.63;;;20.50;70.70;;;;;;4956886;28;20058;-11
2022/10/17 06:21:26;;;;;;;1.17;0.52;;;20.50;70.50;;;;;;4954284;28;20031;-11
2022/10/17 06:23:52;;;;;;;1.40;0.60;;;20.40;70.70;;;;;;4953619;28;20030;-13
2022/10/17 06:26:18;;;;;;;0.73;0.63;;;20.40;70.90;;;;;;4958556;28;20420;-11
2022/10/17 06:28:43;;;;;;;0.50;0.30;;;20.40;70.70;;;;;;4953753;28;20035;-11
2022/10/17 06:31:10;;;;;;;0.30;0.30;;;20.40;70.90;;;;;;4956930;28;20508;-12
2022/10/17 06:33:36;;;;;;;0.88;0.30;;;20.40;71.10;;;;;;4957829;28;20049;-20
2022/10/17 06:36:02;;;;;;;0.60;0.43;;;20.30;71.10;;;;;;4954170;28;20411;-16
2022/10/17 06:38:28;;;;;;;0.75;0.50;;;20.50;70.80;;;;;;4950360;28;20749;-13
2022/10/17 06:40:56;;;;;;;0.60;0.40;;;20.50;70.50;;;;;;4949056;28;20038;-12
2022/10/17 06:43:22;;;;;;;0.38;0.38;;;20.80;69.70;;;;;;4957286;28;20039;-12
2022/10/17 06:45:47;;;;;;;0.98;0.70;;;21.00;68.80;;;;;;4955726;28;20172;-21
2022/10/17 06:48:13;;;;;;;0.40;0.40;;;21.00;68.70;;;;;;4956055;28;20110;-11
2022/10/17 06:50:39;;;;;;;1.50;0.30;;;20.90;69.10;;;;;;4955927;28;20627;-12
2022/10/17 06:53:04;;;;;;;0.68;0.50;;;21.10;68.50;;;;;;4955544;28;20453;-21
2022/10/17 06:55:31;;;;;;;0.63;0.40;;;21.00;68.60;;;;;;4958858;28;20023;-12
2022/10/17 06:57:56;;;;;;;0.30;0.30;;;21.10;68.40;;;;;;4960451;28;20136;-11
2022/10/17 07:00:22;;;;;;;0.60;0.50;;;21.00;68.60;;;;;;4957738;28;20502;-27
2022/10/17 07:02:48;;;;;;;0.43;0.30;;;20.70;69.80;;;;;;4959206;28;20034;-18
2022/10/17 07:05:14;;;;;;;0.73;0.43;;;20.50;70.20;;;;;;4960110;28;20384;-20
2022/10/17 07:07:39;;;;;;;0.40;0.40;;;20.50;70.70;;;;;;4961575;28;20041;-21
2022/10/17 07:10:07;;;;;;;0.40;0.40;;;20.40;70.70;;;;;;4958599;28;20030;-15
2022/10/17 07:12:33;;;;;;;0.50;0.50;;;20.40;70.70;;;;;;4959954;28;20027;-16
2022/10/17 07:14:59;;;;;;;0.50;0.50;;;20.40;70.80;;;;;;4961301;28;20052;-14
2022/10/17 07:17:25;;;;;;;1.27;0.60;;;20.40;70.80;;;;;;4960235;28;21406;-24
2022/10/17 07:19:50;;;;;;;0.40;0.40;;;20.40;70.70;;;;;;4956780;28;20028;-18
2022/10/17 07:22:16;;;;;;;0.40;0.40;;;20.40;70.80;;;;;;4962127;28;20031;-38
2022/10/17 07:24:41;;;;;;;0.90;0.60;;;20.30;70.90;;;;;;4961760;28;20023;-20
2022/10/17 07:27:07;;;;;;;2.17;0.55;;;20.40;71.00;;;;;;4973661;28;20027;-31
2022/10/17 07:29:32;;;;;;;0.32;0.32;;;20.40;70.90;;;;;;4958058;28;20030;-26
2022/10/17 07:31:58;;;;;;;0.60;0.40;;;20.30;70.90;;;;;;4957660;28;20445;-16
2022/10/17 07:34:29;;;;;;;1.60;0.30;;;20.30;70.90;;;;;;4956323;28;20063;-21
2022/10/17 07:36:55;;;;;;;0.30;0.30;;;20.30;71.00;;;;;;4958383;28;20075;-14
2022/10/17 07:39:20;;;;;;;0.40;0.35;;;20.30;70.90;;;;;;4960508;28;20026;-26
2022/10/17 07:41:48;;;;;;;0.30;0.30;;;20.30;70.90;;;;;;4960711;28;20118;-30
2022/10/17 07:44:14;;;;;;;0.80;0.50;;;20.30;71.00;;;;;;4960939;28;20027;-23
2022/10/17 07:46:39;;;;;;;0.57;0.43;;;20.30;71.00;;;;;;4961550;28;20070;-20
2022/10/17 07:49:05;;;;;;;1.13;0.40;;;20.30;70.80;;;;;;4957890;28;20431;-29
2022/10/17 07:51:31;;;;;;;1.00;0.57;;;20.30;70.70;;;;;;4957609;28;20565;-22
2022/10/17 07:53:56;;;;;;;0.65;0.65;;;20.30;70.70;;;;;;4958758;28;20510;-17
2022/10/17 07:56:23;;;;;;;0.50;0.50;;;20.30;70.90;;;;;;4957280;28;20101;-34
2022/10/17 07:58:50;;;;;;;0.30;0.30;;;20.20;70.90;;;;;;4955072;28;20117;-13
2022/10/17 08:01:16;;;;;;;0.30;0.30;;;20.30;70.90;;;;;;4959194;28;20026;-11
2022/10/17 08:03:43;;;;;;;0.30;0.30;;;20.30;70.80;;;;;;4962096;28;20037;-15
2022/10/17 08:06:08;;;;;;;1.65;0.50;;;20.30;70.80;;;;;;4957765;28;20032;-23
2022/10/17 08:08:34;;;;;;;0.32;0.32;;;20.30;70.70;;;;;;4958608;28;20499;-31
2022/10/17 08:11:04;;;;;;;0.30;0.30;;;20.30;70.60;;;;;;4957351;28;20140;-16
2022/10/17 08:13:30;;;;;;;0.40;0.40;;;20.30;70.60;;;;;;4959755;28;20034;-23
2022/10/17 08:16:03;;;;;;;0.30;0.30;;;20.30;70.60;;;;;;4960884;28;20026;-25
2022/10/17 08:18:28;;;;;;;0.30;0.30;;;20.30;70.60;;;;;;4960594;28;20421;-13
2022/10/17 08:20:54;;;;;;;0.50;0.40;;;20.30;70.60;;;;;;4958189;28;20162;-11
2022/10/17 08:23:19;;;;;;;1.08;0.50;;;20.30;70.70;;;;;;4959459;28;20123;-17
2022/10/17 08:25:45;;;;;;;0.57;0.40;;;20.30;70.70;;;;;;4959480;28;20490;-22
2022/10/17 08:28:11;;;;;;;0.35;0.30;;;20.30;70.80;;;;;;4957939;28;20117;-20
2022/10/17 08:30:36;;;;;;;0.40;0.40;;;20.20;70.60;;;;;;4960887;28;20168;-18
2022/10/17 08:33:02;;;;;;;0.38;0.38;;;20.20;70.80;;;;;;4961406;28;20105;-21
2022/10/17 08:35:28;;;;;;;0.30;0.30;;;20.20;70.80;;;;;;4963171;28;20031;-21
2022/10/17 08:37:53;;;;;;;0.40;0.40;;;20.20;70.70;;;;;;4963359;28;20027;-32
2022/10/17 08:40:24;;;;;;;0.20;0.20;;;20.20;70.90;;;;;;4963261;28;20030;-28
2022/10/17 08:43:21;;;;;;;0.40;0.40;;;20.20;71.00;;;;;;4976836;28;20026;-22
2022/10/17 08:46:02;;;;;;;0.30;0.30;;;20.20;70.80;;;;;;4960125;28;20058;-18
2022/10/17 08:48:31;;;;;;;0.30;0.30;;;20.20;71.00;;;;;;4974880;28;20034;-21
2022/10/17 08:51:12;;;;;;;0.30;0.30;;;20.20;70.90;;;;;;4977942;28;20570;-30
2022/10/17 08:53:50;;;;;;;0.45;0.45;;;20.20;71.00;;;;;;4959789;28;20019;-15
2022/10/17 08:56:23;;;;;;;0.25;0.25;;;20.20;71.10;;;;;;4959308;28;20027;-11
2022/10/17 08:58:49;;;;;;;0.55;0.30;;;20.20;71.00;;;;;;4989001;28;20113;-16
2022/10/17 09:01:39;;;;;;;0.20;0.20;;;20.20;71.10;;;;;;4964134;28;20122;-20
2022/10/17 09:04:29;;;;;;;0.30;0.30;;;20.10;71.00;;;;;;4961137;28;20037;-21
2022/10/17 09:07:15;;;;;;;0.30;0.30;;;20.10;71.00;;;;;;4963761;28;20027;-18
2022/10/17 09:09:43;;;;;;;0.63;0.32;;;20.10;71.00;;;;;;4957448;28;20375;-28
2022/10/17 09:12:24;;;;;;;0.45;0.38;;;20.20;70.80;;;;;;4961629;28;20457;-34
2022/10/17 09:15:04;;;;;;;0.20;0.20;;;20.10;70.80;;;;;;4978173;28;20058;-31
2022/10/17 09:17:33;;;;;;;0.30;0.30;;;20.10;70.80;;;;;;4958922;28;20037;-23
2022/10/17 09:20:11;;;;;;;0.20;0.20;;;20.20;70.80;;;;;;4975800;28;20030;-14
2022/10/17 09:22:57;;;;;;;0.13;0.13;;;20.20;70.70;;;;;;4961472;28;20035;-16
2022/10/17 09:25:22;;;;;;;0.32;0.25;;;20.20;70.50;;;;;;4978383;28;20153;-17
2022/10/17 09:27:49;;;;;;;0.40;0.30;;;20.20;70.50;;;;;;4964000;28;20118;-24
2022/10/17 09:30:41;;;;;;;0.20;0.20;;;20.20;70.60;;;;;;4959785;28;20019;-36
2022/10/17 09:33:22;;;;;;;0.30;0.30;;;20.20;70.50;;;;;;4958756;28;20118;-27
2022/10/17 09:35:48;;;;;;;0.30;0.20;;;20.30;70.50;;;;;;4962365;28;20030;-29
2022/10/17 09:38:19;;;;;;;0.30;0.30;;;20.20;70.50;;;;;;4977856;28;20449;-25
2022/10/17 09:40:53;;;;;;;0.25;0.20;;;20.30;70.60;;;;;;4958075;28;20093;-17
2022/10/17 09:43:18;;;;;;;0.55;0.30;;;20.30;70.50;;;;;;4961026;28;20030;-24
2022/10/17 09:46:09;;;;;;;0.30;0.30;;;20.40;70.50;;;;;;4960672;28;20040;-12
2022/10/17 09:48:37;;;;;;;0.30;0.30;;;20.50;70.30;;;;;;4954834;28;20046;-15
2022/10/17 09:51:02;;;;;;;0.50;0.40;;;20.50;70.30;;;;;;4962428;28;20118;-14
2022/10/17 09:53:43;;;;;;;0.20;0.20;;;20.50;70.90;;;;;;4962591;28;20109;-28
2022/10/17 09:56:16;;;;;;;0.40;0.40;;;20.50;70.10;;;;;;4940539;28;20035;-36
2022/10/17 09:58:44;;;;;;;0.35;0.22;;;20.50;70.00;;;;;;4960759;28;20037;-40
2022/10/17 10:01:29;;;;;;;0.28;0.28;;;20.50;70.00;;;;;;4960482;28;20446;-25
2022/10/17 10:04:14;;;;;;;0.25;0.25;;;20.40;70.10;;;;;;4956493;28;20098;-17
2022/10/17 10:06:41;;;;;;;0.20;0.20;;;20.40;69.80;;;;;;4950511;28;20035;-12
2022/10/17 10:09:23;;;;;;;0.20;0.20;;;20.50;69.90;;;;;;4955473;28;20019;-17
2022/10/17 10:11:51;;;;;;;0.20;0.20;;;20.40;70.70;;;;;;4978399;28;20085;-16
2022/10/17 10:14:21;;;;;;;0.60;0.20;;;20.40;70.60;;;;;;4955816;28;20409;-16
2022/10/17 10:16:47;;;;;;;0.38;0.30;;;20.40;70.50;;;;;;4957059;28;20098;-12
2022/10/17 10:19:32;;;;;;;0.40;0.40;;;20.50;70.10;;;;;;4959951;28;20027;-25
2022/10/17 10:22:03;;;;;;;0.20;0.10;;;20.50;69.90;;;;;;4959635;28;20036;-20
2022/10/17 10:24:28;;;;;;;0.10;0.10;;;20.50;69.90;;;;;;4961727;28;20024;-29
2022/10/17 10:26:55;;;;;;;0.35;0.30;;;20.50;70.20;;;;;;4960497;28;20584;-28
2022/10/17 10:29:34;;;;;;;0.40;0.25;;;20.50;69.80;;;;;;4957918;28;20405;-22
2022/10/17 10:32:26;;;;;;;0.17;0.17;;;20.50;69.80;;;;;;4957666;28;20114;-34
2022/10/17 10:34:59;;;;;;;0.35;0.15;;;20.50;69.80;;;;;;4958447;28;20046;-17
2022/10/17 10:37:27;;;;;;;0.20;0.20;;;20.50;70.10;;;;;;4976875;28;20613;-14
2022/10/17 10:39:55;;;;;;;0.20;0.20;;;20.50;70.10;;;;;;4954556;28;20035;-19
2022/10/17 10:42:32;;;;;;;0.10;0.10;;;20.50;70.10;;;;;;4977637;28;20027;-13
2022/10/17 10:45:14;;;;;;;0.17;0.17;;;20.50;70.00;;;;;;4974240;28;20054;-15
2022/10/17 10:47:39;;;;;;;0.28;0.28;;;20.50;70.10;;;;;;4946855;28;20540;-24
2022/10/17 10:50:28;;;;;;;0.13;0.13;;;20.40;70.30;;;;;;4976100;28;20051;-35
2022/10/17 10:53:12;;;;;;;0.30;0.20;;;20.40;70.60;;;;;;4952324;28;20045;-22
2022/10/17 10:55:50;;;;;;;0.30;0.30;;;20.40;70.40;;;;;;4963113;28;20042;-29
2022/10/17 10:58:22;;;;;;;0.20;0.20;;;20.40;70.30;;;;;;4960208;28;20079;-16
2022/10/17 11:00:47;;;;;;;0.13;0.10;;;20.50;70.10;;;;;;4957899;28;20077;-37
2022/10/17 11:03:20;;;;;;;0.20;0.20;;;20.50;70.00;;;;;;4957979;28;20062;-40
2022/10/17 11:05:52;;;;;;;0.20;0.20;;;20.50;69.90;;;;;;4957357;28;20030;-15
2022/10/17 11:08:39;;;;;;;0.30;0.20;;;20.50;69.90;;;;;;4969742;28;20693;-19
2022/10/17 11:11:17;;;;;;;0.20;0.20;;;20.60;69.60;;;;;;4959057;28;20023;-25
2022/10/17 11:13:50;;;;;;;0.22;0.17;;;20.60;69.70;;;;;;4961604;28;20030;-16
2022/10/17 11:16:45;;;;;;;0.38;0.30;;;20.60;69.80;;;;;;4936446;28;20487;-27
2022/10/17 11:19:14;;;;;;;0.20;0.20;;;20.70;70.30;;;;;;4620959;28;10000610;-13
2022/10/17 11:21:48;;;;;;;0.40;0.35;;;20.60;69.50;;;;;;4950416;28;20059;-24
2022/10/17 11:24:23;;;;;;;0.20;0.10;;;20.60;70.10;;;;;;4954025;28;20027;-21
2022/10/17 11:26:59;;;;;;;0.10;0.10;;;20.50;70.10;;;;;;4981413;28;20042;-20
2022/10/17 11:29:29;;;;;;;0.20;0.20;;;20.50;70.40;;;;;;4953849;28;20324;-27
2022/10/17 11:31:55;;;;;;;0.57;0.20;;;20.70;69.70;;;;;;4952678;28;20029;-37
2022/10/17 11:34:25;;;;;;;0.35;0.35;;;20.70;69.20;;;;;;4982394;28;20027;-15
2022/10/17 11:36:53;;;;;;;0.20;0.20;;;20.70;69.20;;;;;;4951931;28;20127;-22
2022/10/17 11:39:48;;;;;;;0.77;0.40;;;20.80;69.10;;;;;;4983831;28;20026;-30
2022/10/17 11:42:17;;;;;;;0.20;0.10;;;20.70;69.30;;;;;;4949030;28;20042;-30
2022/10/17 11:44:43;;;;;;;0.55;0.40;;;20.70;69.50;;;;;;4937300;28;20034;-19
2022/10/17 11:47:38;;;;;;;0.32;0.30;;;20.80;69.20;;;;;;4967649;28;20038;-18
2022/10/17 11:50:06;;;;;;;;;;;20.70;69.50;;;;;;4979259;28;20023;-34
2022/10/17 11:52:36;;;;;;;0.30;0.20;;;20.70;69.30;;;;;;4949511;28;19975;-19
2022/10/17 11:55:12;;;;;;;0.28;0.28;;;20.90;68.90;;;;;;4954992;28;20588;-19
2022/10/17 11:57:49;;;;;;;1.45;0.20;;;20.90;68.80;;;;;;4958355;28;20076;-19
2022/10/17 12:00:34;;;;;;;0.43;0.30;;;20.80;69.10;;;;;;4968662;28;20090;-13
2022/10/17 12:03:16;;;;;;;2.15;0.30;;;20.80;69.30;;;;;;4970776;28;20027;-13
2022/10/17 12:05:51;;;;;;;0.28;0.28;;;20.70;69.20;;;;;;4961822;28;20035;-21
2022/10/17 12:08:24;;;;;;;0.40;0.40;;;20.70;69.40;;;;;;4959947;28;20027;-17
2022/10/17 12:11:11;;;;;;;0.55;0.20;;;20.80;69.60;;;;;;4977231;28;20111;-24
2022/10/17 12:13:36;;;;;;;0.30;0.30;;;20.80;69.80;;;;;;4965819;28;20125;-21
2022/10/17 12:16:20;;;;;;;0.93;0.30;;;20.70;69.70;;;;;;4964696;28;20608;-11
2022/10/17 12:18:47;;;;;;;0.30;0.20;;;20.80;69.70;;;;;;4964587;28;20039;-12
2022/10/17 12:21:12;;;;;;;0.20;0.20;;;20.80;69.80;;;;;;4962776;28;20104;-10
2022/10/17 12:23:38;;;;;;;0.20;0.20;;;20.80;70.30;;;;;;4979505;28;20518;-20
2022/10/17 12:26:08;;;;;;;0.30;0.20;;;20.70;71.10;;;;;;4964017;28;20026;-11
2022/10/17 12:28:36;;;;;;;0.20;0.20;;;20.70;70.70;;;;;;4946663;28;20031;-38
2022/10/17 12:31:15;;;;;;;0.50;0.50;;;20.70;70.60;;;;;;4962568;28;20517;-24
2022/10/17 12:33:48;;;;;;;0.30;0.30;;;20.70;70.70;;;;;;4962442;28;20042;-12
2022/10/17 12:36:29;;;;;;;0.50;0.20;;;20.70;70.60;;;;;;4959273;28;20548;-11
2022/10/17 12:39:00;;;;;;;0.40;0.20;;;20.70;70.80;;;;;;4959867;28;20383;-11
2022/10/17 12:41:38;;;;;;;0.50;0.25;;;20.70;70.70;;;;;;4957092;28;20034;-15
2022/10/17 12:44:13;;;;;;;0.40;0.40;;;20.70;70.60;;;;;;4959499;28;20085;-11
2022/10/17 12:46:49;;;;;;;0.20;0.20;;;20.70;70.50;;;;;;4962171;28;20027;-11
2022/10/17 12:49:59;;;;;;;0.35;0.30;;;20.80;70.40;;;;;;4960069;28;20058;-13
2022/10/17 12:52:31;;;;;;;0.55;0.28;;;20.70;70.70;;;;;;4960148;28;20019;-14
2022/10/17 12:55:02;;;;;;;0.60;0.30;;;20.80;70.60;;;;;;4962868;28;20043;-11
2022/10/17 12:57:52;;;;;;;0.40;0.20;;;20.80;70.40;;;;;;4962627;28;20117;-15
2022/10/17 13:00:48;;;;;;;0.60;0.25;;;20.80;70.50;;;;;;4963549;28;20066;-11
2022/10/17 13:03:24;;;;;;;0.88;0.40;;;20.70;70.80;;;;;;4957163;28;20046;-11